Time;durP1;ratioP1;P1;durP2;ratioP2;P2;SDS_P1;SDS_P2;PMS_P1;PMS_P2;Temp;Humidity;BMP_temperature;BMP_pressure;BME280_temperature;BME280_humidity;BME280_pressure;Samples;Min_cycle;Max_cycle;Signal;HPM_P1;HPM_P2
2023/08/27 00:01:03;;;;;;;2.20;1.65;;;14.80;99.90;;;;;;4995042;28;20030;-76
2023/08/27 00:03:30;;;;;;;3.35;1.83;;;14.80;99.90;;;;;;5013512;28;20038;-76
2023/08/27 00:05:56;;;;;;;2.17;1.40;;;14.90;99.90;;;;;;4977564;28;20033;-77
2023/08/27 00:08:23;;;;;;;4.88;1.77;;;14.90;99.90;;;;;;4998135;28;20041;-78
2023/08/27 00:10:49;;;;;;;2.63;1.30;;;14.90;99.90;;;;;;4995858;28;20045;-77
2023/08/27 00:13:15;;;;;;;2.35;1.88;;;15.00;99.90;;;;;;4997186;28;20038;-76
2023/08/27 00:15:46;;;;;;;2.63;1.50;;;15.00;99.90;;;;;;5015273;28;20034;-76
2023/08/27 00:18:12;;;;;;;2.33;1.60;;;15.00;99.90;;;;;;4998430;28;20073;-76
2023/08/27 00:20:41;;;;;;;2.72;1.15;;;15.10;99.90;;;;;;4994450;28;20037;-76
2023/08/27 00:23:14;;;;;;;1.65;1.10;;;15.10;99.90;;;;;;5010165;28;20053;-76
2023/08/27 00:25:42;;;;;;;2.65;1.23;;;15.20;99.90;;;;;;4995344;28;20038;-77
2023/08/27 00:28:11;;;;;;;2.20;1.27;;;15.20;99.90;;;;;;4995210;28;20040;-78
2023/08/27 00:30:38;;;;;;;3.55;1.10;;;15.20;99.90;;;;;;4994753;28;20037;-78
2023/08/27 00:33:04;;;;;;;1.55;1.17;;;15.20;99.90;;;;;;5011404;28;20033;-78
2023/08/27 00:35:32;;;;;;;2.58;1.15;;;15.20;99.90;;;;;;4980928;28;20033;-77
2023/08/27 00:37:58;;;;;;;1.70;1.30;;;15.20;99.90;;;;;;4960897;28;20457;-77
2023/08/27 00:40:28;;;;;;;1.85;1.13;;;15.10;99.90;;;;;;4980380;28;20033;-77
2023/08/27 00:42:58;;;;;;;3.17;1.40;;;15.10;99.90;;;;;;4980526;28;20073;-77
2023/08/27 00:45:25;;;;;;;1.80;1.10;;;15.10;99.90;;;;;;4998063;28;20446;-77
2023/08/27 00:47:52;;;;;;;2.08;1.25;;;15.10;99.90;;;;;;4980030;28;20034;-77
2023/08/27 00:50:19;;;;;;;1.58;1.08;;;15.10;99.90;;;;;;4980416;28;20042;-78
2023/08/27 00:52:46;;;;;;;1.90;1.13;;;15.00;99.90;;;;;;4975432;28;20058;-77
2023/08/27 00:55:12;;;;;;;1.80;1.02;;;15.00;99.90;;;;;;5010297;28;20061;-77
2023/08/27 00:57:40;;;;;;;1.98;1.20;;;15.00;99.90;;;;;;4997064;28;20041;-78
2023/08/27 01:00:09;;;;;;;2.50;1.20;;;15.00;99.90;;;;;;5011601;28;20412;-77
2023/08/27 01:02:37;;;;;;;2.55;1.00;;;14.90;99.90;;;;;;4974269;28;20037;-77
2023/08/27 01:05:05;;;;;;;1.42;0.93;;;14.90;99.90;;;;;;4995932;28;20050;-77
2023/08/27 01:07:59;;;;;;;1.85;0.95;;;14.90;99.90;;;;;;4993121;28;20393;-78
2023/08/27 01:10:40;;;;;;;2.95;1.10;;;14.90;99.90;;;;;;5011059;28;20045;-78
2023/08/27 01:13:16;;;;;;;2.33;1.10;;;14.90;99.90;;;;;;5013775;28;20044;-77
2023/08/27 01:15:45;;;;;;;2.17;1.13;;;14.90;99.90;;;;;;4992320;28;20480;-77
2023/08/27 01:18:14;;;;;;;1.25;0.85;;;14.90;99.90;;;;;;4995231;28;20045;-78
2023/08/27 01:20:41;;;;;;;1.92;1.00;;;14.90;99.90;;;;;;4991638;28;20033;-77
2023/08/27 01:23:07;;;;;;;1.60;0.98;;;14.90;99.90;;;;;;4993291;28;20493;-77
2023/08/27 01:25:46;;;;;;;3.78;1.15;;;14.90;99.90;;;;;;4993156;28;20470;-78
2023/08/27 01:28:22;;;;;;;2.42;0.80;;;14.90;99.90;;;;;;4990241;28;20052;-77
2023/08/27 01:31:11;;;;;;;2.20;1.10;;;14.90;99.90;;;;;;4971147;28;20515;-77
2023/08/27 01:33:39;;;;;;;1.33;0.70;;;14.90;99.90;;;;;;4991908;28;20045;-77
2023/08/27 01:36:07;;;;;;;1.80;0.80;;;14.90;99.90;;;;;;5010230;28;20029;-78
2023/08/27 01:38:34;;;;;;;2.58;0.90;;;14.90;99.90;;;;;;4970865;28;20034;-78
2023/08/27 01:41:01;;;;;;;1.45;0.73;;;14.80;99.90;;;;;;4993152;28;20030;-78
2023/08/27 01:43:28;;;;;;;1.83;0.80;;;14.80;99.90;;;;;;4996618;28;20469;-77
2023/08/27 01:45:55;;;;;;;2.03;1.27;;;14.80;99.90;;;;;;4977680;28;20613;-77
2023/08/27 01:48:21;;;;;;;1.48;0.90;;;14.80;99.90;;;;;;4976932;28;20358;-77
2023/08/27 01:50:48;;;;;;;1.98;0.90;;;14.80;99.90;;;;;;4990950;28;20046;-77
2023/08/27 01:53:15;;;;;;;1.65;0.90;;;14.80;99.90;;;;;;4991951;28;20507;-77
2023/08/27 01:55:41;;;;;;;1.90;0.95;;;14.80;99.90;;;;;;4993477;28;20029;-77
2023/08/27 01:58:08;;;;;;;1.70;0.90;;;14.80;99.90;;;;;;5009614;28;20041;-78
2023/08/27 02:00:35;;;;;;;1.40;0.80;;;14.90;99.90;;;;;;5007486;28;20022;-77
2023/08/27 02:03:02;;;;;;;1.50;0.80;;;14.90;99.90;;;;;;5008838;28;20045;-78
2023/08/27 02:05:29;;;;;;;2.13;0.90;;;14.90;99.90;;;;;;4975930;28;20040;-77
2023/08/27 02:07:55;;;;;;;1.42;0.70;;;14.90;99.90;;;;;;4976244;28;20034;-77
2023/08/27 02:10:22;;;;;;;1.55;0.80;;;14.90;99.90;;;;;;5009664;28;20033;-75
2023/08/27 02:12:48;;;;;;;2.55;0.80;;;15.00;99.90;;;;;;5008975;28;20412;-75
2023/08/27 02:15:15;;;;;;;2.22;0.80;;;15.00;99.90;;;;;;5011282;28;20053;-76
2023/08/27 02:17:42;;;;;;;1.50;0.73;;;15.00;99.90;;;;;;4995663;28;20052;-76
2023/08/27 02:20:10;;;;;;;1.35;0.77;;;15.00;99.90;;;;;;4992665;28;20045;-76
2023/08/27 02:22:36;;;;;;;1.30;0.80;;;15.00;99.90;;;;;;4992422;28;20049;-76
2023/08/27 02:25:04;;;;;;;1.00;0.70;;;15.00;99.90;;;;;;4992441;28;20143;-76
2023/08/27 02:27:30;;;;;;;1.10;0.60;;;15.00;99.90;;;;;;5008323;28;20049;-76
2023/08/27 02:29:57;;;;;;;1.30;0.80;;;14.90;99.90;;;;;;4975814;28;20065;-75
2023/08/27 02:32:24;;;;;;;2.40;0.80;;;14.90;99.90;;;;;;4992264;28;20033;-76
2023/08/27 02:34:50;;;;;;;1.50;1.00;;;14.80;99.90;;;;;;4979481;28;20056;-76
2023/08/27 02:37:17;;;;;;;1.40;0.90;;;14.80;99.90;;;;;;4993912;28;20652;-76
2023/08/27 02:39:43;;;;;;;2.17;0.90;;;14.70;99.90;;;;;;4990681;28;20337;-76
2023/08/27 02:42:10;;;;;;;1.38;0.70;;;14.70;99.90;;;;;;4993380;28;20034;-78
2023/08/27 02:44:36;;;;;;;1.48;0.80;;;14.70;99.90;;;;;;4978927;28;20035;-76
2023/08/27 02:47:03;;;;;;;1.58;0.70;;;14.60;99.90;;;;;;5009047;28;20055;-75
2023/08/27 02:49:30;;;;;;;1.58;0.80;;;14.60;99.90;;;;;;4978357;28;20399;-76
2023/08/27 02:51:56;;;;;;;1.40;0.80;;;14.50;99.90;;;;;;4976841;28;20026;-75
2023/08/27 02:54:22;;;;;;;1.60;0.63;;;14.50;99.90;;;;;;4992793;28;20439;-76
2023/08/27 02:56:49;;;;;;;1.60;0.73;;;14.60;99.90;;;;;;4989999;28;20041;-76
2023/08/27 02:59:15;;;;;;;1.70;0.90;;;14.60;99.90;;;;;;4995148;28;20038;-75
2023/08/27 03:01:42;;;;;;;1.35;0.75;;;14.60;99.90;;;;;;4990352;28;20022;-76
2023/08/27 03:04:08;;;;;;;2.85;0.80;;;14.60;99.90;;;;;;4994224;28;20492;-76
2023/08/27 03:06:35;;;;;;;2.55;0.70;;;14.70;99.90;;;;;;5006533;28;20037;-77
2023/08/27 03:09:01;;;;;;;2.15;0.80;;;14.70;99.90;;;;;;4994858;28;21348;-76
2023/08/27 03:11:28;;;;;;;1.65;0.75;;;14.70;99.90;;;;;;5007914;28;20281;-76
2023/08/27 03:13:54;;;;;;;2.03;0.68;;;14.80;99.90;;;;;;4995043;28;20045;-77
2023/08/27 03:16:20;;;;;;;2.55;0.75;;;14.80;99.90;;;;;;4975452;28;20388;-76
2023/08/27 03:18:47;;;;;;;1.17;0.80;;;14.80;99.90;;;;;;4976527;28;20041;-76
2023/08/27 03:21:13;;;;;;;1.42;0.70;;;14.80;99.90;;;;;;4974813;28;20050;-77
2023/08/27 03:23:40;;;;;;;1.52;0.80;;;14.90;99.90;;;;;;5009562;28;20030;-76
2023/08/27 03:26:07;;;;;;;1.88;1.00;;;14.90;99.90;;;;;;4992817;28;20026;-76
2023/08/27 03:28:34;;;;;;;1.50;0.70;;;14.90;99.90;;;;;;4988977;28;20045;-76
2023/08/27 03:31:04;;;;;;;1.35;0.70;;;14.90;99.90;;;;;;4991700;28;20586;-77
2023/08/27 03:33:31;;;;;;;2.00;0.70;;;14.90;99.90;;;;;;4971478;28;20033;-77
2023/08/27 03:36:00;;;;;;;1.15;0.70;;;14.90;99.90;;;;;;4972187;28;20064;-76
2023/08/27 03:38:26;;;;;;;1.85;0.70;;;15.00;99.90;;;;;;4972825;28;20486;-76
2023/08/27 03:40:53;;;;;;;1.70;0.73;;;15.00;99.90;;;;;;5008662;28;20038;-76
2023/08/27 03:43:19;;;;;;;1.73;0.50;;;15.00;99.90;;;;;;4959439;28;20057;-77
2023/08/27 03:45:46;;;;;;;1.40;0.70;;;15.00;99.90;;;;;;4977451;28;20038;-77
2023/08/27 03:48:13;;;;;;;1.40;0.60;;;15.10;99.90;;;;;;4990078;28;20026;-76
2023/08/27 03:50:40;;;;;;;1.20;0.50;;;15.00;99.90;;;;;;4990690;28;20038;-74
2023/08/27 03:53:06;;;;;;;0.85;0.52;;;15.10;99.90;;;;;;4992270;28;20036;-73
2023/08/27 03:55:41;;;;;;;0.98;0.55;;;15.00;99.90;;;;;;4976143;28;20579;-73
2023/08/27 03:58:08;;;;;;;2.58;0.70;;;14.90;99.90;;;;;;4991668;28;20041;-74
2023/08/27 04:00:35;;;;;;;1.08;0.60;;;14.80;99.90;;;;;;5004346;28;20038;-73
2023/08/27 04:03:02;;;;;;;0.90;0.55;;;14.80;99.90;;;;;;4991200;28;20064;-73
2023/08/27 04:05:28;;;;;;;1.42;0.70;;;14.70;99.90;;;;;;4961070;28;20046;-75
2023/08/27 04:07:55;;;;;;;3.35;0.90;;;14.70;99.90;;;;;;4993573;28;20037;-74
2023/08/27 04:10:21;;;;;;;2.38;1.42;;;14.70;99.90;;;;;;5008180;28;20033;-74
2023/08/27 04:12:48;;;;;;;2.42;1.10;;;14.60;99.90;;;;;;4995465;28;20037;-73
2023/08/27 04:15:15;;;;;;;4.28;1.33;;;14.60;99.90;;;;;;4989561;28;20053;-73
2023/08/27 04:17:41;;;;;;;3.28;1.33;;;14.50;99.90;;;;;;4957299;28;20052;-74
2023/08/27 04:20:09;;;;;;;2.22;1.63;;;14.50;99.90;;;;;;5008317;28;20041;-74
2023/08/27 04:22:36;;;;;;;1.90;1.60;;;14.50;99.90;;;;;;4977475;28;22923;-74
2023/08/27 04:25:04;;;;;;;2.70;1.73;;;14.40;99.90;;;;;;4992432;28;20037;-74
2023/08/27 04:27:30;;;;;;;3.38;1.65;;;14.40;99.90;;;;;;4993854;28;20041;-75
2023/08/27 04:29:57;;;;;;;2.70;1.73;;;14.40;99.90;;;;;;5010215;28;20052;-74
2023/08/27 04:32:23;;;;;;;2.10;1.52;;;14.40;99.90;;;;;;4979613;28;20412;-74
2023/08/27 04:34:49;;;;;;;4.13;2.15;;;14.40;99.90;;;;;;4978146;28;20045;-75
2023/08/27 04:37:16;;;;;;;3.28;1.45;;;14.40;99.90;;;;;;4996792;28;20030;-74
2023/08/27 04:39:42;;;;;;;3.97;1.90;;;14.50;99.90;;;;;;4997036;28;20500;-73
2023/08/27 04:42:09;;;;;;;2.63;1.63;;;14.50;99.90;;;;;;4964750;28;20563;-73
2023/08/27 04:44:35;;;;;;;1.92;1.35;;;14.50;99.90;;;;;;4978483;28;20038;-75
2023/08/27 04:47:02;;;;;;;2.10;1.30;;;14.50;99.90;;;;;;4996702;28;20036;-75
2023/08/27 04:49:28;;;;;;;4.30;2.15;;;14.50;99.90;;;;;;4966145;28;20042;-74
2023/08/27 04:51:55;;;;;;;3.25;2.30;;;14.40;99.90;;;;;;4995903;28;20369;-74
2023/08/27 04:54:21;;;;;;;2.33;1.40;;;14.40;99.90;;;;;;4994596;28;20053;-74
2023/08/27 04:56:48;;;;;;;2.45;1.50;;;14.40;99.90;;;;;;4980752;28;20028;-74
2023/08/27 04:59:15;;;;;;;2.15;1.52;;;14.40;99.90;;;;;;4993600;28;20497;-74
2023/08/27 05:01:42;;;;;;;2.40;1.50;;;14.40;99.90;;;;;;4979016;28;20642;-73
2023/08/27 05:04:08;;;;;;;2.03;1.67;;;14.40;99.90;;;;;;4997400;28;20037;-74
2023/08/27 05:06:35;;;;;;;2.38;1.70;;;14.50;99.90;;;;;;5013761;28;20488;-74
2023/08/27 05:09:01;;;;;;;3.05;1.80;;;14.50;99.90;;;;;;5012633;28;20038;-74
2023/08/27 05:11:28;;;;;;;3.58;1.95;;;14.50;99.90;;;;;;4994097;28;20030;-74
2023/08/27 05:13:54;;;;;;;2.65;1.90;;;14.50;99.90;;;;;;4994312;28;20052;-75
2023/08/27 05:16:23;;;;;;;3.17;1.67;;;14.50;99.90;;;;;;4992908;28;20034;-75
2023/08/27 05:18:49;;;;;;;3.13;2.22;;;14.50;99.90;;;;;;4996063;28;20121;-75
2023/08/27 05:21:16;;;;;;;4.68;1.83;;;14.60;99.90;;;;;;4994505;28;20033;-75
2023/08/27 05:23:43;;;;;;;2.50;1.40;;;14.60;99.90;;;;;;4975700;28;20038;-75
2023/08/27 05:26:09;;;;;;;3.03;1.73;;;14.60;99.90;;;;;;4993458;28;20041;-75
2023/08/27 05:28:36;;;;;;;2.50;1.70;;;14.60;99.90;;;;;;4996323;28;20524;-75
2023/08/27 05:31:03;;;;;;;2.20;1.48;;;14.60;99.90;;;;;;4994095;28;20048;-75
2023/08/27 05:33:30;;;;;;;2.22;1.50;;;14.60;99.90;;;;;;5013695;28;20044;-74
2023/08/27 05:35:56;;;;;;;2.10;1.20;;;14.60;99.90;;;;;;4977503;28;20520;-76
2023/08/27 05:38:23;;;;;;;3.10;1.50;;;14.60;99.90;;;;;;4995783;28;20041;-74
2023/08/27 05:40:52;;;;;;;1.90;1.20;;;14.60;99.90;;;;;;4995702;28;20045;-75
2023/08/27 05:43:20;;;;;;;1.90;1.27;;;14.60;99.90;;;;;;5011780;28;20037;-76
2023/08/27 05:45:46;;;;;;;2.00;1.20;;;14.60;99.90;;;;;;4977064;28;20034;-76
2023/08/27 05:48:15;;;;;;;1.88;1.38;;;14.60;99.90;;;;;;4965625;28;20038;-76
2023/08/27 05:50:44;;;;;;;4.57;1.60;;;14.60;99.90;;;;;;4978472;28;20041;-75
2023/08/27 05:53:15;;;;;;;2.20;1.30;;;14.60;99.90;;;;;;4994587;28;20599;-74
2023/08/27 05:55:44;;;;;;;2.28;1.30;;;14.70;99.90;;;;;;4991939;28;20053;-75
2023/08/27 05:58:10;;;;;;;2.40;1.92;;;14.80;99.90;;;;;;5009586;28;20021;-75
2023/08/27 06:00:38;;;;;;;3.78;2.15;;;14.80;99.90;;;;;;4991655;28;20042;-74
2023/08/27 06:03:05;;;;;;;3.67;1.50;;;14.90;99.90;;;;;;4978039;28;20042;-75
2023/08/27 06:05:32;;;;;;;2.17;1.05;;;14.90;99.90;;;;;;4993343;28;20018;-76
2023/08/27 06:08:02;;;;;;;2.28;1.00;;;15.00;99.90;;;;;;4992637;28;20042;-75
2023/08/27 06:10:30;;;;;;;1.73;0.90;;;15.10;99.90;;;;;;5009727;28;20052;-76
2023/08/27 06:12:58;;;;;;;2.45;1.20;;;15.10;99.90;;;;;;4978569;28;20045;-76
2023/08/27 06:15:27;;;;;;;1.95;1.15;;;15.10;99.90;;;;;;4978721;28;20041;-76
2023/08/27 06:17:54;;;;;;;3.22;1.20;;;15.20;99.90;;;;;;4978298;28;21040;-76
2023/08/27 06:20:21;;;;;;;3.42;1.02;;;15.40;99.90;;;;;;4994909;28;20041;-76
2023/08/27 06:22:48;;;;;;;2.47;1.30;;;15.50;99.90;;;;;;4995447;28;21189;-76
2023/08/27 06:25:16;;;;;;;2.72;1.00;;;15.50;99.90;;;;;;5011263;28;20076;-75
2023/08/27 06:27:42;;;;;;;2.65;1.20;;;15.50;99.90;;;;;;5010076;28;20041;-76
2023/08/27 06:30:09;;;;;;;2.13;0.82;;;15.40;99.90;;;;;;5008747;28;20504;-75
2023/08/27 06:32:35;;;;;;;2.85;1.20;;;15.40;99.90;;;;;;4992599;28;20496;-76
2023/08/27 06:35:02;;;;;;;2.22;1.25;;;15.50;99.90;;;;;;4977010;28;20052;-76
2023/08/27 06:37:29;;;;;;;1.63;1.10;;;15.50;99.90;;;;;;4961344;28;20042;-76
2023/08/27 06:39:55;;;;;;;2.08;1.23;;;15.70;99.90;;;;;;4974970;28;20038;-76
2023/08/27 06:42:22;;;;;;;3.25;1.45;;;15.80;99.90;;;;;;4975759;28;20412;-76
2023/08/27 06:44:52;;;;;;;1.75;1.23;;;16.00;99.90;;;;;;5010522;28;20045;-76
2023/08/27 06:47:18;;;;;;;1.85;1.30;;;16.00;99.90;;;;;;4962252;28;20030;-75
2023/08/27 06:49:45;;;;;;;1.95;1.10;;;16.10;99.90;;;;;;4993968;28;20060;-76
2023/08/27 06:52:12;;;;;;;1.63;1.00;;;16.10;99.90;;;;;;4962657;28;20034;-76
2023/08/27 06:54:38;;;;;;;2.08;1.30;;;16.20;99.90;;;;;;4977626;28;20038;-77
2023/08/27 06:57:05;;;;;;;2.35;1.25;;;16.20;99.90;;;;;;4991425;28;21294;-76
2023/08/27 06:59:31;;;;;;;3.30;1.60;;;16.20;99.90;;;;;;4986665;28;20038;-75
2023/08/27 07:01:59;;;;;;;3.50;1.42;;;16.40;99.90;;;;;;4991783;28;20033;-75
2023/08/27 07:04:26;;;;;;;3.03;1.60;;;16.40;99.90;;;;;;4978870;28;20022;-76
2023/08/27 07:06:53;;;;;;;2.70;1.90;;;16.50;99.90;;;;;;5009284;28;20030;-76
2023/08/27 07:09:19;;;;;;;2.78;1.63;;;16.50;99.90;;;;;;4991162;28;20033;-76
2023/08/27 07:11:45;;;;;;;1.67;1.40;;;16.60;99.90;;;;;;4976520;28;20386;-77
2023/08/27 07:14:12;;;;;;;3.33;2.10;;;16.50;99.90;;;;;;4990937;28;20464;-76
2023/08/27 07:16:38;;;;;;;4.00;2.10;;;16.50;99.90;;;;;;4995155;28;20512;-77
2023/08/27 07:19:05;;;;;;;3.35;1.75;;;16.60;99.90;;;;;;4973677;28;20045;-76
2023/08/27 07:21:32;;;;;;;3.33;2.33;;;16.70;99.90;;;;;;4995209;28;20064;-76
2023/08/27 07:23:59;;;;;;;2.53;1.55;;;16.80;99.90;;;;;;5010901;28;20095;-77
2023/08/27 07:26:26;;;;;;;3.72;2.42;;;16.90;99.90;;;;;;4977958;28;20041;-77
2023/08/27 07:28:53;;;;;;;3.17;2.20;;;16.90;99.90;;;;;;5005877;28;20383;-77
2023/08/27 07:31:20;;;;;;;3.35;2.53;;;16.90;99.90;;;;;;4990608;28;20385;-76
2023/08/27 07:33:46;;;;;;;3.13;2.50;;;16.90;99.90;;;;;;4988513;28;20503;-76
2023/08/27 07:36:13;;;;;;;4.40;3.30;;;17.10;99.90;;;;;;4992337;28;20048;-77
2023/08/27 07:38:41;;;;;;;5.43;3.25;;;17.10;99.90;;;;;;4993295;28;20034;-76
2023/08/27 07:41:08;;;;;;;5.85;3.90;;;17.20;99.90;;;;;;4974669;28;20060;-77
2023/08/27 07:43:35;;;;;;;3.97;2.92;;;17.30;99.90;;;;;;4992328;28;20049;-75
2023/08/27 07:46:02;;;;;;;4.15;3.63;;;17.40;99.90;;;;;;4963257;28;20041;-76
2023/08/27 07:48:31;;;;;;;7.78;6.25;;;17.50;99.90;;;;;;4992943;28;20255;-76
2023/08/27 07:50:58;;;;;;;5.25;4.40;;;17.60;99.90;;;;;;5008736;28;20420;-76
2023/08/27 07:53:25;;;;;;;5.82;4.65;;;17.70;99.90;;;;;;5011560;28;20033;-75
2023/08/27 07:55:51;;;;;;;5.85;4.78;;;17.90;99.90;;;;;;4990077;28;20045;-75
2023/08/27 07:58:18;;;;;;;5.88;4.20;;;18.20;99.90;;;;;;4975962;28;20048;-75
2023/08/27 08:00:44;;;;;;;5.50;4.40;;;18.50;99.90;;;;;;4990746;28;20511;-75
2023/08/27 08:03:11;;;;;;;6.20;3.97;;;18.80;99.90;;;;;;4991297;28;20033;-75
2023/08/27 08:05:37;;;;;;;3.95;3.40;;;18.90;99.90;;;;;;4973554;28;20053;-75
2023/08/27 08:08:04;;;;;;;8.50;3.95;;;19.00;99.90;;;;;;5008540;28;20045;-75
2023/08/27 08:10:30;;;;;;;6.65;3.30;;;19.00;99.90;;;;;;4992199;28;20052;-75
2023/08/27 08:12:57;;;;;;;5.68;3.97;;;19.10;99.90;;;;;;4998523;28;20026;-75
2023/08/27 08:15:23;;;;;;;5.40;2.85;;;19.00;99.90;;;;;;4997505;28;20061;-75
2023/08/27 08:17:50;;;;;;;4.50;2.58;;;18.80;99.90;;;;;;4999608;28;20259;-72
2023/08/27 08:20:16;;;;;;;5.85;3.70;;;18.80;99.90;;;;;;4998471;28;20029;-74
2023/08/27 08:22:43;;;;;;;9.48;4.60;;;18.80;99.90;;;;;;5013308;28;20041;-74
2023/08/27 08:25:09;;;;;;;3.33;3.03;;;18.70;99.90;;;;;;4998604;28;20030;-75
2023/08/27 08:27:35;;;;;;;5.82;3.35;;;18.70;99.90;;;;;;4994641;28;20428;-75
2023/08/27 08:30:05;;;;;;;3.85;3.30;;;18.70;99.90;;;;;;4993648;28;20500;-74
2023/08/27 08:32:32;;;;;;;6.47;3.13;;;18.70;99.90;;;;;;4994685;28;20068;-76
2023/08/27 08:34:58;;;;;;;5.93;3.47;;;19.00;99.90;;;;;;4966027;28;20068;-77
2023/08/27 08:37:25;;;;;;;4.82;3.10;;;19.30;99.90;;;;;;4975059;28;20037;-76
2023/08/27 08:39:52;;;;;;;4.75;3.20;;;19.40;99.90;;;;;;4994032;28;20046;-77
2023/08/27 08:42:31;;;;;;;7.68;2.65;;;19.40;99.90;;;;;;5010644;28;20022;-78
2023/08/27 08:45:13;;;;;;;8.38;4.07;;;19.30;99.90;;;;;;5015352;28;20361;-78
2023/08/27 08:47:40;;;;;;;4.77;2.73;;;19.10;99.90;;;;;;4998370;28;20037;-78
2023/08/27 08:50:10;;;;;;;4.90;3.08;;;18.90;99.90;;;;;;4980166;28;20052;-78
2023/08/27 08:52:39;;;;;;;5.40;2.78;;;18.90;99.90;;;;;;4995169;28;20056;-78
2023/08/27 08:55:10;;;;;;;5.85;2.50;;;19.10;99.90;;;;;;4959289;28;20053;-78
2023/08/27 08:57:40;;;;;;;4.07;2.72;;;19.40;99.90;;;;;;4997189;28;20489;-78
2023/08/27 09:00:11;;;;;;;3.15;2.17;;;19.70;99.90;;;;;;4987883;28;20496;-78
2023/08/27 09:02:39;;;;;;;4.55;2.05;;;20.00;99.90;;;;;;4995235;28;20639;-78
2023/08/27 09:05:08;;;;;;;4.60;1.95;;;20.40;99.90;;;;;;4994062;28;20489;-78
2023/08/27 09:07:36;;;;;;;4.20;1.98;;;20.60;99.90;;;;;;4983900;28;20037;-80
2023/08/27 09:10:04;;;;;;;4.40;1.88;;;20.80;99.90;;;;;;4991102;28;20037;-80
2023/08/27 09:12:31;;;;;;;3.47;1.30;;;20.90;99.90;;;;;;4993635;28;20034;-79
2023/08/27 09:14:58;;;;;;;4.35;1.48;;;20.90;99.90;;;;;;4995350;28;20512;-79
2023/08/27 09:17:24;;;;;;;2.38;1.23;;;20.90;99.90;;;;;;4997711;28;20365;-80
2023/08/27 09:19:51;;;;;;;2.53;1.10;;;20.80;99.90;;;;;;4977481;28;20041;-80
2023/08/27 09:22:19;;;;;;;2.78;0.95;;;20.90;99.90;;;;;;4976490;28;20397;-80
2023/08/27 09:24:46;;;;;;;2.55;1.00;;;20.80;99.90;;;;;;4989555;28;20034;-80
2023/08/27 09:27:13;;;;;;;1.80;0.70;;;20.80;99.90;;;;;;4995441;28;20037;-81
2023/08/27 09:29:42;;;;;;;3.20;1.17;;;20.90;99.90;;;;;;4992963;28;20029;-78
2023/08/27 09:32:21;;;;;;;3.10;0.98;;;21.00;99.90;;;;;;4984117;28;20049;-78
2023/08/27 09:34:49;;;;;;;2.25;0.70;;;21.10;99.90;;;;;;5008077;28;20034;-77
2023/08/27 09:37:15;;;;;;;2.38;1.00;;;21.20;99.90;;;;;;5007836;28;20558;-78
2023/08/27 09:39:44;;;;;;;1.98;0.73;;;21.40;99.90;;;;;;4991908;28;20021;-80
2023/08/27 09:42:12;;;;;;;2.42;0.80;;;21.60;99.90;;;;;;4991184;28;20086;-78
2023/08/27 09:44:39;;;;;;;2.03;0.70;;;21.70;99.90;;;;;;4994198;28;20033;-78
2023/08/27 09:47:06;;;;;;;1.52;0.60;;;21.80;99.90;;;;;;4977063;28;20038;-78
2023/08/27 09:49:38;;;;;;;2.90;0.80;;;21.80;99.90;;;;;;4992398;28;20033;-75
2023/08/27 09:52:04;;;;;;;1.58;0.80;;;21.70;99.90;;;;;;4972569;28;20037;-77
2023/08/27 09:54:31;;;;;;;2.40;0.70;;;21.50;99.90;;;;;;4992850;28;20045;-78
2023/08/27 09:56:59;;;;;;;3.70;0.70;;;21.40;99.90;;;;;;5009090;28;20052;-78
2023/08/27 09:59:26;;;;;;;1.77;0.65;;;21.20;99.90;;;;;;5007955;28;20500;-77
2023/08/27 10:01:53;;;;;;;3.30;0.70;;;21.10;99.90;;;;;;4992551;28;20037;-77
2023/08/27 10:04:21;;;;;;;3.25;0.70;;;21.00;99.90;;;;;;4993920;28;20034;-77
2023/08/27 10:06:48;;;;;;;2.55;0.60;;;21.00;99.90;;;;;;4994161;28;20050;-77
2023/08/27 10:09:15;;;;;;;3.88;0.70;;;21.00;99.90;;;;;;4990338;28;20042;-77
2023/08/27 10:11:45;;;;;;;1.10;0.50;;;21.00;99.90;;;;;;4991842;28;21974;-77
2023/08/27 10:14:14;;;;;;;2.70;0.50;;;21.10;99.90;;;;;;5012600;28;21106;-77
2023/08/27 10:16:41;;;;;;;1.27;0.40;;;21.50;99.90;;;;;;4980526;28;20057;-77
2023/08/27 10:19:08;;;;;;;1.92;0.40;;;21.90;99.90;;;;;;4975573;28;20516;-78
2023/08/27 10:21:35;;;;;;;1.98;0.60;;;22.20;99.90;;;;;;5000746;28;20511;-76
2023/08/27 10:24:04;;;;;;;1.65;0.50;;;22.50;99.90;;;;;;4990823;28;20378;-73
2023/08/27 10:26:31;;;;;;;1.80;0.40;;;22.50;99.90;;;;;;4990908;28;20034;-75
2023/08/27 10:28:59;;;;;;;1.50;0.40;;;22.50;99.90;;;;;;4973288;28;20409;-78
2023/08/27 10:31:26;;;;;;;0.82;0.30;;;22.30;99.90;;;;;;4988052;28;20354;-75
2023/08/27 10:33:53;;;;;;;0.75;0.28;;;22.00;99.90;;;;;;4976577;28;23240;-76
2023/08/27 10:36:25;;;;;;;1.10;0.22;;;21.70;99.90;;;;;;4975992;28;20405;-78
2023/08/27 10:38:53;;;;;;;0.60;0.30;;;21.20;99.90;;;;;;4993834;28;20393;-79
2023/08/27 10:41:24;;;;;;;0.30;0.15;;;20.60;99.90;;;;;;4988995;28;20147;-78
2023/08/27 10:43:51;;;;;;;0.20;0.10;;;20.20;99.90;;;;;;4989091;28;20473;-79
2023/08/27 10:46:20;;;;;;;0.40;0.10;;;19.90;99.90;;;;;;4989232;28;20034;-78
2023/08/27 10:48:51;;;;;;;0.30;0.13;;;19.60;99.90;;;;;;4991653;28;20042;-78
2023/08/27 10:51:21;;;;;;;0.85;0.20;;;19.40;99.90;;;;;;4990041;28;20041;-79
2023/08/27 10:53:50;;;;;;;1.13;0.22;;;19.30;99.90;;;;;;4958576;28;20488;-79
2023/08/27 10:56:38;;;;;;;0.60;0.10;;;19.10;99.90;;;;;;4987393;28;20206;-78
2023/08/27 10:59:25;;;;;;;0.40;0.10;;;19.10;99.90;;;;;;4988639;28;20053;-79
2023/08/27 11:01:54;;;;;;;0.40;0.20;;;19.30;99.90;;;;;;5004172;28;20633;-80
2023/08/27 11:04:20;;;;;;;0.40;0.10;;;19.70;99.90;;;;;;4992165;28;20030;-79
2023/08/27 11:06:51;;;;;;;0.20;0.10;;;19.70;99.90;;;;;;5008884;28;20411;-80
2023/08/27 11:09:24;;;;;;;0.30;0.10;;;19.70;99.90;;;;;;4972590;28;20029;-80
2023/08/27 11:12:00;;;;;;;1.70;0.20;;;19.80;99.90;;;;;;4958173;28;20056;-80
2023/08/27 11:14:27;;;;;;;0.43;0.20;;;20.40;99.90;;;;;;4971720;28;20038;-79
2023/08/27 11:16:58;;;;;;;1.00;0.20;;;20.60;99.90;;;;;;4975787;28;20057;-81
2023/08/27 11:19:28;;;;;;;0.30;0.20;;;20.90;99.90;;;;;;5006301;28;20033;-80
2023/08/27 11:22:06;;;;;;;1.92;0.20;;;21.10;99.90;;;;;;4992468;28;20354;-80
2023/08/27 11:24:34;;;;;;;0.47;0.20;;;21.20;99.90;;;;;;5008128;28;20030;-79
2023/08/27 11:27:02;;;;;;;0.82;0.15;;;21.00;99.90;;;;;;4975915;28;20037;-80
2023/08/27 11:29:29;;;;;;;1.35;0.20;;;20.70;99.90;;;;;;4975451;28;20026;-82
2023/08/27 11:32:00;;;;;;;0.60;0.20;;;20.20;99.90;;;;;;4989583;28;20134;-81
2023/08/27 11:34:38;;;;;;;0.70;0.30;;;19.80;99.90;;;;;;5007795;28;20687;-80
2023/08/27 11:37:05;;;;;;;2.92;0.40;;;19.30;99.90;;;;;;4974804;28;20463;-81
2023/08/27 11:39:33;;;;;;;6.50;0.63;;;18.90;99.90;;;;;;5008490;28;20041;-77
2023/08/27 11:42:00;;;;;;;2.65;0.40;;;18.50;99.90;;;;;;4990084;28;20038;-75
2023/08/27 11:44:26;;;;;;;2.00;0.30;;;17.80;99.90;;;;;;4990352;28;20045;-74
2023/08/27 11:46:53;;;;;;;3.53;0.30;;;17.00;99.90;;;;;;4995715;28;20389;-75
2023/08/27 11:49:31;;;;;;;2.90;0.30;;;16.40;99.90;;;;;;4993956;28;20497;-75
2023/08/27 11:51:58;;;;;;;1.65;0.30;;;16.10;99.90;;;;;;4996189;28;20045;-74
2023/08/27 11:54:30;;;;;;;1.30;0.30;;;16.00;99.90;;;;;;4995630;28;20041;-73
2023/08/27 11:56:57;;;;;;;0.82;0.28;;;15.90;99.90;;;;;;4993439;28;20052;-73
2023/08/27 11:59:27;;;;;;;0.98;0.30;;;15.90;99.90;;;;;;4993987;28;20030;-73
2023/08/27 12:01:59;;;;;;;1.80;0.30;;;15.90;99.90;;;;;;4961873;28;20030;-73
2023/08/27 12:04:29;;;;;;;1.02;0.38;;;15.80;99.90;;;;;;4975779;28;20034;-73
2023/08/27 12:07:00;;;;;;;0.73;0.30;;;15.80;99.90;;;;;;4996379;28;20037;-73
2023/08/27 12:09:29;;;;;;;3.40;0.40;;;15.90;99.90;;;;;;4976900;28;20038;-74
2023/08/27 12:12:00;;;;;;;0.65;0.30;;;16.00;99.90;;;;;;5010668;28;20034;-74
2023/08/27 12:14:28;;;;;;;1.35;0.40;;;16.10;99.90;;;;;;4994677;28;20554;-74
2023/08/27 12:17:00;;;;;;;1.50;0.30;;;16.20;99.90;;;;;;4974861;28;20038;-75
2023/08/27 12:19:27;;;;;;;0.70;0.30;;;16.30;99.90;;;;;;4990936;28;20108;-74
2023/08/27 12:21:56;;;;;;;1.30;0.30;;;16.60;99.90;;;;;;4993248;28;20029;-75
2023/08/27 12:24:42;;;;;;;0.75;0.40;;;16.80;99.90;;;;;;4991627;28;20045;-75
2023/08/27 12:27:10;;;;;;;1.42;0.50;;;17.20;99.90;;;;;;4991888;28;20037;-74
2023/08/27 12:29:39;;;;;;;1.10;0.43;;;17.90;99.90;;;;;;4992442;28;20049;-74
2023/08/27 12:32:17;;;;;;;3.05;0.85;;;18.90;99.90;;;;;;4992575;28;20531;-75
2023/08/27 12:34:48;;;;;;;4.45;2.00;;;19.80;99.90;;;;;;4992544;28;20041;-75
2023/08/27 12:37:17;;;;;;;2.75;0.80;;;20.70;99.90;;;;;;5010912;28;20515;-76
2023/08/27 12:39:45;;;;;;;3.80;2.10;;;21.60;99.90;;;;;;5008337;28;20034;-76
2023/08/27 12:42:12;;;;;;;6.82;2.38;;;22.20;99.90;;;;;;4993675;28;20041;-76
2023/08/27 12:44:38;;;;;;;1.90;0.60;;;22.60;99.90;;;;;;5010682;28;20035;-76
2023/08/27 12:47:07;;;;;;;0.90;0.40;;;22.30;99.90;;;;;;4977665;28;20041;-76
2023/08/27 12:49:36;;;;;;;2.42;0.70;;;21.90;99.90;;;;;;4991082;28;20045;-77
2023/08/27 12:52:04;;;;;;;1.00;0.30;;;22.10;99.90;;;;;;5007152;28;20038;-77